createdAt,value
2022-09-05T00:00:11.546Z,16.99
2022-09-05T00:02:52.784Z,16.99
2022-09-05T00:05:35.148Z,17.08
2022-09-05T00:08:20.754Z,17.18
2022-09-05T00:11:41.393Z,17.07
2022-09-05T00:14:01.492Z,16.94
2022-09-05T00:16:45.109Z,16.90
2022-09-05T00:24:19.105Z,16.78
2022-09-05T00:24:30.063Z,17.01
2022-09-05T00:25:41.385Z,16.84
2022-09-05T00:28:26.830Z,16.76
2022-09-05T00:31:54.213Z,16.72
2022-09-05T00:34:47.531Z,16.56
2022-09-05T00:37:29.188Z,16.30
2022-09-05T00:40:18.676Z,16.20
2022-09-05T00:42:54.427Z,16.19
2022-09-05T00:45:30.693Z,16.26
2022-09-05T00:48:10.366Z,16.10
2022-09-05T00:50:56.539Z,16.07
2022-09-05T00:53:31.409Z,16.01
2022-09-05T00:56:07.201Z,15.89
2022-09-05T00:58:54.071Z,15.89
2022-09-05T01:01:29.416Z,15.85
2022-09-05T01:04:09.559Z,15.76
2022-09-05T01:06:48.509Z,15.68
2022-09-05T01:09:25.961Z,15.70
2022-09-05T01:12:17.839Z,15.62
2022-09-05T01:15:06.202Z,15.65
2022-09-05T01:17:45.785Z,15.57
2022-09-05T01:20:29.845Z,15.56
2022-09-05T01:23:25.175Z,15.63
2022-09-05T01:26:04.129Z,15.51
2022-09-05T01:29:16.604Z,15.47
2022-09-05T01:31:34.159Z,15.39
2022-09-05T01:34:12.340Z,15.34
2022-09-05T01:36:51.761Z,15.28
2022-09-05T01:40:14.936Z,15.29
2022-09-05T01:42:25.191Z,15.33
2022-09-05T01:45:00.313Z,15.24
2022-09-05T01:47:40.766Z,15.20
2022-09-05T01:50:22.913Z,15.20
2022-09-05T01:53:06.372Z,15.14
2022-09-05T01:56:04.937Z,15.04
2022-09-05T01:58:49.622Z,15.07
2022-09-05T02:01:32.416Z,15.03
2022-09-05T02:04:20.818Z,14.99
2022-09-05T02:06:54.514Z,14.92
2022-09-05T02:09:36.650Z,14.95
2022-09-05T02:12:07.814Z,14.94
2022-09-05T02:14:42.914Z,14.99
2022-09-05T02:17:23.430Z,15.17
2022-09-05T02:20:23.620Z,15.32
2022-09-05T02:22:56.748Z,15.41
2022-09-05T02:26:01.060Z,15.61
2022-09-05T02:28:20.591Z,15.80
2022-09-05T02:31:18.889Z,15.81
2022-09-05T02:33:51.348Z,15.59
2022-09-05T02:36:32.408Z,15.74
2022-09-05T02:45:04.017Z,15.75
2022-09-05T02:45:16.500Z,15.36
2022-09-05T02:45:21.086Z,15.54
2022-09-05T02:47:53.045Z,15.31
2022-09-05T02:57:23.938Z,15.24
2022-09-05T02:57:24.372Z,15.23
2022-09-05T02:57:41.946Z,15.20
2022-09-05T02:59:37.666Z,15.17
2022-09-05T03:02:25.593Z,15.17
2022-09-05T03:05:04.327Z,15.22
2022-09-05T03:07:49.748Z,15.25
2022-09-05T03:10:54.674Z,15.21
2022-09-05T03:14:00.622Z,15.18
2022-09-05T03:17:06.958Z,15.15
2022-09-05T03:19:53.251Z,15.17
2022-09-05T03:22:56.704Z,15.21
2022-09-05T03:26:09.002Z,15.15
2022-09-05T03:29:07.653Z,15.22
2022-09-05T03:31:48.856Z,15.21
2022-09-05T03:34:47.533Z,15.25
2022-09-05T03:37:58.442Z,15.29
2022-09-05T03:40:52.953Z,15.20
2022-09-05T03:43:38.326Z,15.21
2022-09-05T03:46:15.246Z,15.18
2022-09-05T03:49:58.013Z,15.12
2022-09-05T03:57:13.604Z,15.18
2022-09-05T03:57:15.839Z,15.15
2022-09-05T03:58:57.342Z,15.15
2022-09-05T04:02:49.172Z,15.15
2022-09-05T04:08:19.557Z,15.19
2022-09-05T04:08:20.794Z,15.19
2022-09-05T04:10:29.069Z,15.12
2022-09-05T04:13:01.835Z,15.11
2022-09-05T04:15:39.893Z,15.22
2022-09-05T04:18:17.599Z,15.17
2022-09-05T04:21:00.845Z,15.25
2022-09-05T04:23:37.146Z,15.25
2022-09-05T04:26:23.006Z,15.21
2022-09-05T04:29:05.536Z,15.15
2022-09-05T04:31:48.503Z,15.14
2022-09-05T04:34:37.993Z,15.15
2022-09-05T04:37:09.178Z,15.16
2022-09-05T04:39:39.009Z,15.11
2022-09-05T04:42:20.050Z,15.04
2022-09-05T04:44:55.863Z,14.98
2022-09-05T04:47:32.070Z,15.02
2022-09-05T04:50:08.289Z,14.99
2022-09-05T04:52:52.105Z,15.27
2022-09-05T04:55:24.013Z,15.48
2022-09-05T04:57:57.793Z,15.73
2022-09-05T05:06:04.646Z,15.74
2022-09-05T05:06:10.846Z,15.74
2022-09-05T05:06:46.162Z,15.57
2022-09-05T05:09:21.770Z,15.55
2022-09-05T05:17:59.254Z,15.64
2022-09-05T05:17:59.562Z,15.51
2022-09-05T05:18:33.705Z,15.71
2022-09-05T05:20:39.748Z,15.61
2022-09-05T05:23:13.715Z,15.48
2022-09-05T05:25:50.882Z,15.56
2022-09-05T05:28:27.621Z,15.66
2022-09-05T05:31:01.655Z,15.67
2022-09-05T05:33:34.997Z,15.79
2022-09-05T05:36:10.326Z,15.76
2022-09-05T05:38:45.504Z,15.48
2022-09-05T05:41:21.251Z,15.42
2022-09-05T05:43:51.841Z,15.38
2022-09-05T05:46:31.837Z,15.33
2022-09-05T05:49:27.494Z,15.35
2022-09-05T05:52:13.818Z,15.31
2022-09-05T05:54:48.571Z,15.38
2022-09-05T05:57:38.910Z,15.46
2022-09-05T06:00:15.445Z,15.53
2022-09-05T06:03:25.764Z,15.65
2022-09-05T06:06:11.359Z,15.77
2022-09-05T06:14:51.311Z,15.84
2022-09-05T06:14:55.118Z,15.80
2022-09-05T06:15:41.866Z,15.87
2022-09-05T06:18:45.953Z,15.93
2022-09-05T06:22:09.001Z,16.00
2022-09-05T06:25:16.520Z,16.04
2022-09-05T06:28:01.387Z,16.14
2022-09-05T06:30:50.090Z,16.16
2022-09-05T06:33:52.350Z,16.23
2022-09-05T06:36:34.447Z,16.32
2022-09-05T06:39:11.415Z,16.42
2022-09-05T06:41:49.293Z,16.45
2022-09-05T06:44:37.210Z,16.46
2022-09-05T06:47:23.976Z,16.47
2022-09-05T06:50:27.382Z,16.57
2022-09-05T06:53:19.994Z,16.69
2022-09-05T06:55:59.792Z,16.76
2022-09-05T06:58:54.432Z,16.98
2022-09-05T07:01:44.740Z,17.15
2022-09-05T07:05:36.755Z,17.13
2022-09-05T07:07:27.603Z,17.30
2022-09-05T07:10:22.022Z,17.23
2022-09-05T07:12:57.085Z,17.19
2022-09-05T07:15:38.216Z,17.26
2022-09-05T07:18:15.243Z,17.11
2022-09-05T07:21:18.072Z,17.10
2022-09-05T07:24:06.604Z,17.19
2022-09-05T07:26:52.572Z,17.23
2022-09-05T07:29:27.694Z,17.21
2022-09-05T07:31:58.482Z,17.23
2022-09-05T07:34:31.962Z,17.30
2022-09-05T07:37:14.960Z,17.33
2022-09-05T07:39:48.529Z,17.44
2022-09-05T07:42:20.745Z,17.55
2022-09-05T07:44:56.552Z,17.61
2022-09-05T07:47:29.986Z,17.77
2022-09-05T07:50:42.849Z,17.84
2022-09-05T07:56:49.385Z,17.87
2022-09-05T07:56:59.131Z,17.99
2022-09-05T07:58:44.054Z,18.14
2022-09-05T08:01:16.118Z,18.21
2022-09-05T08:03:46.273Z,18.22
2022-09-05T08:06:55.456Z,18.21
2022-09-05T08:09:59.578Z,18.33
2022-09-05T08:12:11.400Z,18.40
2022-09-05T08:14:46.695Z,18.54
2022-09-05T08:17:20.350Z,18.71
2022-09-05T08:20:07.922Z,18.67
2022-09-05T08:22:52.544Z,18.69
2022-09-05T08:25:25.626Z,18.80
2022-09-05T08:28:06.699Z,18.76
2022-09-05T08:30:42.061Z,18.84
2022-09-05T08:33:15.805Z,18.91
2022-09-05T08:35:47.918Z,18.99
2022-09-05T08:38:20.268Z,18.97
2022-09-05T08:40:58.101Z,19.05
2022-09-05T08:46:37.993Z,19.14
2022-09-05T08:46:47.453Z,19.19
2022-09-05T08:49:40.377Z,19.24
2022-09-05T08:52:15.706Z,19.41
2022-09-05T08:55:05.755Z,19.50
2022-09-05T08:57:56.331Z,19.63
2022-09-05T09:00:31.436Z,19.86
2022-09-05T09:03:15.860Z,19.96
2022-09-05T09:06:18.221Z,20.04
2022-09-05T09:09:08.378Z,20.01
2022-09-05T09:11:44.204Z,20.12
2022-09-05T09:14:38.973Z,20.15
2022-09-05T09:17:23.279Z,20.12
2022-09-05T09:19:57.289Z,20.25
2022-09-05T09:22:39.738Z,20.41
2022-09-05T09:25:15.788Z,20.40
2022-09-05T09:28:48.915Z,20.44
2022-09-05T09:30:59.805Z,20.34
2022-09-05T09:33:39.411Z,20.31
2022-09-05T09:36:18.079Z,20.36
2022-09-05T09:39:08.099Z,20.32
2022-09-05T09:42:02.449Z,20.43
2022-09-05T09:45:22.723Z,20.62
2022-09-05T09:48:38.885Z,20.75
2022-09-05T09:51:22.806Z,20.99
2022-09-05T09:54:07.426Z,21.05
2022-09-05T09:56:59.533Z,21.09
2022-09-05T09:59:57.658Z,21.02
2022-09-05T10:05:41.486Z,21.17
2022-09-05T10:10:48.189Z,21.38
2022-09-05T10:10:53.559Z,21.40
2022-09-05T10:12:12.112Z,21.35
2022-09-05T10:14:55.763Z,21.51
2022-09-05T10:17:53.339Z,21.57
2022-09-05T10:20:41.285Z,21.67
2022-09-05T10:23:36.191Z,21.69
2022-09-05T10:26:33.215Z,21.84
2022-09-05T10:29:34.756Z,22.06
2022-09-05T10:34:42.422Z,22.11
2022-09-05T10:35:07.644Z,22.29
2022-09-05T10:37:51.458Z,22.51
2022-09-05T10:40:25.545Z,22.30
2022-09-05T10:43:00.514Z,22.33
2022-09-05T10:45:38.676Z,22.38
2022-09-05T10:48:14.669Z,22.60
2022-09-05T10:50:47.299Z,22.96
2022-09-05T10:53:42.111Z,23.35
2022-09-05T10:56:16.819Z,23.52
2022-09-05T10:59:59.828Z,23.63
2022-09-05T11:02:27.905Z,23.75
2022-09-05T11:04:49.880Z,23.64
2022-09-05T11:07:27.859Z,23.78
2022-09-05T11:10:05.693Z,23.74
2022-09-05T11:13:05.308Z,23.68
2022-09-05T11:16:04.244Z,23.73
2022-09-05T11:18:55.016Z,23.89
2022-09-05T11:21:30.646Z,23.89
2022-09-05T11:24:03.209Z,23.67
2022-09-05T11:26:38.935Z,23.61
2022-09-05T11:29:11.985Z,23.41
2022-09-05T11:32:56.566Z,23.28
2022-09-05T11:40:04.607Z,23.22
2022-09-05T11:40:07.553Z,23.25
2022-09-05T11:41:41.463Z,23.27
2022-09-05T11:44:26.977Z,23.19
2022-09-05T11:47:33.217Z,23.10
2022-09-05T11:50:25.372Z,22.91
2022-09-05T11:53:32.710Z,22.78
2022-09-05T11:56:14.195Z,22.74
2022-09-05T11:59:09.878Z,22.56
2022-09-05T12:01:51.462Z,22.52
2022-09-05T12:05:50.845Z,22.39
2022-09-05T12:08:00.233Z,22.29
2022-09-05T12:10:47.150Z,22.27
2022-09-05T12:13:32.251Z,22.22
2022-09-05T12:16:08.397Z,22.28
2022-09-05T12:18:46.400Z,22.27
2022-09-05T12:21:27.814Z,22.32
2022-09-05T12:24:13.665Z,22.25
2022-09-05T12:27:38.201Z,22.21
2022-09-05T12:29:51.203Z,22.15
2022-09-05T12:33:52.359Z,22.17
2022-09-05T12:36:13.112Z,22.25
2022-09-05T12:40:21.417Z,22.32
2022-09-05T12:41:44.902Z,22.28
2022-09-05T12:44:41.793Z,22.22
2022-09-05T12:47:17.051Z,22.21
2022-09-05T12:50:02.384Z,22.17
2022-09-05T12:52:40.741Z,22.21
2022-09-05T12:55:13.725Z,22.34
2022-09-05T12:59:46.813Z,22.36
2022-09-05T13:03:05.550Z,22.19
2022-09-05T13:03:59.321Z,22.10
2022-09-05T13:06:31.088Z,22.14
2022-09-05T13:09:05.323Z,22.10
2022-09-05T13:14:53.190Z,22.10
2022-09-05T13:15:12.523Z,22.13
2022-09-05T13:17:48.829Z,22.16
2022-09-05T13:20:21.143Z,22.12
2022-09-05T13:22:52.121Z,22.19
2022-09-05T13:25:27.132Z,22.12
2022-09-05T13:28:01.643Z,22.19
2022-09-05T13:37:41.542Z,22.21
2022-09-05T13:38:04.294Z,22.11
2022-09-05T13:38:07.301Z,22.19
2022-09-05T13:39:14.986Z,22.16
2022-09-05T13:41:48.815Z,22.15
2022-09-05T13:44:25.511Z,22.08
2022-09-05T13:47:02.599Z,22.16
2022-09-05T13:49:46.494Z,22.21
2022-09-05T13:52:29.140Z,22.21
2022-09-05T13:55:09.073Z,22.11
2022-09-05T13:57:41.450Z,22.07
2022-09-05T14:00:46.735Z,22.01
2022-09-05T14:03:38.691Z,22.05
2022-09-05T14:06:30.801Z,22.07
2022-09-05T14:09:39.816Z,22.06
2022-09-05T14:12:15.254Z,21.99
2022-09-05T14:17:56.183Z,21.98
2022-09-05T14:20:44.046Z,21.95
2022-09-05T14:23:19.417Z,21.95
2022-09-05T14:25:52.731Z,22.01
2022-09-05T14:28:28.754Z,21.98
2022-09-05T14:37:05.023Z,21.94
2022-09-05T14:37:38.730Z,21.89
2022-09-05T14:37:43.357Z,21.86
2022-09-05T14:40:29.232Z,21.92
2022-09-05T14:43:26.747Z,21.91
2022-09-05T14:46:28.341Z,21.89
2022-09-05T14:49:37.164Z,21.83
2022-09-05T14:52:23.614Z,21.81
2022-09-05T15:02:50.744Z,21.75
2022-09-05T15:02:55.072Z,21.77
2022-09-05T15:06:38.107Z,21.77
2022-09-05T15:12:15.440Z,21.80
2022-09-05T15:12:20.064Z,21.76
2022-09-05T15:15:00.488Z,21.74
2022-09-05T15:17:30.542Z,21.70
2022-09-05T15:20:07.308Z,21.68
2022-09-05T15:22:39.724Z,21.68
2022-09-05T15:25:19.713Z,21.69
2022-09-05T15:27:51.525Z,21.61
2022-09-05T15:30:35.375Z,21.54
2022-09-05T15:33:16.103Z,21.54
2022-09-05T15:35:47.229Z,21.47
2022-09-05T15:38:37.908Z,21.37
2022-09-05T15:41:26.463Z,21.43
2022-09-05T15:44:00.384Z,21.36
2022-09-05T15:46:46.304Z,21.24
2022-09-05T15:49:30.911Z,21.29
2022-09-05T15:52:02.369Z,21.26
2022-09-05T15:54:38.443Z,21.18
2022-09-05T15:57:17.863Z,21.13
2022-09-05T15:59:50.293Z,21.07
2022-09-05T16:02:22.662Z,20.98
2022-09-05T16:10:36.493Z,20.94
2022-09-05T16:10:37.637Z,20.87
2022-09-05T16:11:17.185Z,20.78
2022-09-05T16:13:52.415Z,20.75
2022-09-05T16:23:14.933Z,20.71
2022-09-05T16:23:25.117Z,20.63
2022-09-05T16:23:30.266Z,20.69
2022-09-05T16:25:04.602Z,20.67
2022-09-05T16:27:54.010Z,20.53
2022-09-05T16:30:29.363Z,20.54
2022-09-05T16:33:03.582Z,20.52
2022-09-05T16:35:35.308Z,20.42
2022-09-05T16:38:11.189Z,20.47
2022-09-05T16:40:43.126Z,20.51
2022-09-05T16:43:15.618Z,20.47
2022-09-05T16:45:52.308Z,20.44
2022-09-05T16:48:44.663Z,20.30
2022-09-05T16:51:32.252Z,20.32
2022-09-05T16:54:10.362Z,20.28
2022-09-05T16:56:42.566Z,20.34
2022-09-05T16:59:15.791Z,20.29
2022-09-05T17:02:07.877Z,20.30
2022-09-05T17:05:02.940Z,20.31
2022-09-05T17:07:42.056Z,20.27
2022-09-05T17:10:14.102Z,20.29
2022-09-05T17:12:44.237Z,20.25
2022-09-05T17:15:17.437Z,20.22
2022-09-05T17:18:21.249Z,20.19
2022-09-05T17:20:51.822Z,20.16
2022-09-05T17:28:13.682Z,20.06
2022-09-05T17:29:36.537Z,20.03
2022-09-05T17:29:49.642Z,20.06
2022-09-05T17:32:00.125Z,20.07
2022-09-05T17:34:53.117Z,20.01
2022-09-05T17:38:00.798Z,19.84
2022-09-05T17:40:55.217Z,19.74
2022-09-05T17:43:29.157Z,19.76
2022-09-05T17:46:10.463Z,19.73
2022-09-05T17:49:18.524Z,19.74
2022-09-05T17:52:28.738Z,19.71
2022-09-05T17:55:00.965Z,19.68
2022-09-05T17:57:45.260Z,19.69
2022-09-05T18:00:50.468Z,19.58
2022-09-05T18:04:17.788Z,19.47
2022-09-05T18:06:59.698Z,19.48
2022-09-05T18:10:15.435Z,19.42
2022-09-05T18:16:14.725Z,19.26
2022-09-05T18:19:32.681Z,19.16
2022-09-05T18:21:51.705Z,19.16
2022-09-05T18:24:33.275Z,19.09
2022-09-05T18:27:30.882Z,19.04
2022-09-05T18:30:11.503Z,19.08
2022-09-05T18:32:45.091Z,19.07
2022-09-05T18:35:37.931Z,19.07
2022-09-05T18:38:29.741Z,19.06
2022-09-05T18:41:18.294Z,18.94
2022-09-05T18:44:00.567Z,18.89
2022-09-05T18:46:48.784Z,18.89
2022-09-05T18:50:22.688Z,18.81
2022-09-05T18:52:23.938Z,18.74
2022-09-05T18:56:10.527Z,18.68
2022-09-05T18:57:50.046Z,18.63
2022-09-05T19:00:35.169Z,18.63
2022-09-05T19:03:24.815Z,18.60
2022-09-05T19:06:35.127Z,18.57
2022-09-05T19:08:50.169Z,18.57
2022-09-05T19:11:28.994Z,18.57
2022-09-05T19:14:25.438Z,18.48
2022-09-05T19:16:51.861Z,18.42
2022-09-05T19:19:27.778Z,18.38
2022-09-05T19:22:36.074Z,18.33
2022-09-05T19:24:50.250Z,18.33
2022-09-05T19:28:49.982Z,18.32
2022-09-05T19:36:52.634Z,18.28
2022-09-05T19:37:07.382Z,18.29
2022-09-05T19:37:08.885Z,18.24
2022-09-05T19:42:15.914Z,18.18
2022-09-05T19:47:33.736Z,18.13
2022-09-05T19:47:43.035Z,18.11
2022-09-05T19:47:55.962Z,18.12
2022-09-05T19:50:22.608Z,18.06
2022-09-05T19:53:09.067Z,18.06
2022-09-05T19:55:40.396Z,18.02
2022-09-05T19:58:18.788Z,18.08
2022-09-05T20:01:00.936Z,18.10
2022-09-05T20:03:39.140Z,18.04
2022-09-05T20:06:24.681Z,18.02
2022-09-05T20:09:17.118Z,17.99
2022-09-05T20:11:51.375Z,17.94
2022-09-05T20:14:26.721Z,17.97
2022-09-05T20:16:58.962Z,17.92
2022-09-05T20:19:31.638Z,17.90
2022-09-05T20:22:17.384Z,17.86
2022-09-05T20:24:57.338Z,17.91
2022-09-05T20:27:28.413Z,17.82
2022-09-05T20:30:00.598Z,17.76
2022-09-05T20:32:38.801Z,17.79
2022-09-05T20:41:53.859Z,17.76
2022-09-05T20:43:17.117Z,17.66
2022-09-05T20:43:29.712Z,17.62
2022-09-05T20:43:53.178Z,17.68
2022-09-05T20:54:09.786Z,17.59
2022-09-05T20:54:14.630Z,17.61
2022-09-05T20:54:26.311Z,17.59
2022-09-05T20:55:41.264Z,17.54
2022-09-05T20:58:18.775Z,17.51
2022-09-05T21:01:21.541Z,17.49
2022-09-05T21:03:46.518Z,17.41
2022-09-05T21:06:27.049Z,17.26
2022-09-05T21:08:57.205Z,17.20
2022-09-05T21:11:34.507Z,17.18
2022-09-05T21:14:07.530Z,17.16
2022-09-05T21:16:44.627Z,17.08
2022-09-05T21:19:25.555Z,17.05
2022-09-05T21:22:05.302Z,17.03
2022-09-05T21:24:35.031Z,16.97
2022-09-05T21:27:19.051Z,16.90
2022-09-05T21:29:59.416Z,16.92
2022-09-05T21:32:37.870Z,16.92
2022-09-05T21:35:34.429Z,16.83
2022-09-05T21:38:01.701Z,16.82
2022-09-05T21:40:31.368Z,16.81
2022-09-05T21:47:35.833Z,16.74
2022-09-05T21:47:47.015Z,16.70
2022-09-05T21:48:46.084Z,16.66
2022-09-05T21:51:26.109Z,16.62
2022-09-05T21:59:13.569Z,16.60
2022-09-05T21:59:18.106Z,16.57
2022-09-05T21:59:46.536Z,16.52
2022-09-05T22:02:19.515Z,16.48
2022-09-05T22:04:49.722Z,16.43
2022-09-05T22:07:32.109Z,16.41
2022-09-05T22:10:03.273Z,16.39
2022-09-05T22:12:35.787Z,16.29
2022-09-05T22:15:26.385Z,16.25
2022-09-05T22:18:16.391Z,16.22
2022-09-05T22:20:51.434Z,16.17
2022-09-05T22:23:40.144Z,16.19
2022-09-05T22:26:09.862Z,16.17
2022-09-05T22:28:48.756Z,16.08
2022-09-05T22:31:21.791Z,16.04
2022-09-05T22:33:53.990Z,15.97
2022-09-05T22:36:23.658Z,15.91
2022-09-05T22:38:53.281Z,15.86
2022-09-05T22:41:30.375Z,15.90
2022-09-05T22:44:00.778Z,15.85
2022-09-05T22:46:30.439Z,15.87
2022-09-05T22:49:02.666Z,15.84
2022-09-05T22:51:32.358Z,15.79
2022-09-05T22:54:01.955Z,15.74
2022-09-05T22:56:33.149Z,15.75
2022-09-05T22:59:02.822Z,15.67
2022-09-05T23:01:32.703Z,15.63
2022-09-05T23:04:05.511Z,15.62
2022-09-05T23:06:35.175Z,15.60
2022-09-05T23:09:04.813Z,15.72
2022-09-05T23:11:34.381Z,15.61
2022-09-05T23:14:03.934Z,15.60
2022-09-05T23:16:33.398Z,15.52
2022-09-05T23:19:05.505Z,15.45
2022-09-05T23:21:36.875Z,15.47
2022-09-05T23:24:06.582Z,15.43
2022-09-05T23:26:36.083Z,15.40
2022-09-05T23:29:06.860Z,15.42
2022-09-05T23:31:36.457Z,15.44
2022-09-05T23:34:08.649Z,15.33
2022-09-05T23:36:38.177Z,15.27
2022-09-05T23:39:07.681Z,15.29
2022-09-05T23:41:37.343Z,15.37
2022-09-05T23:44:06.857Z,15.32
2022-09-05T23:46:37.960Z,15.25
2022-09-05T23:49:10.243Z,15.25
2022-09-05T23:51:39.874Z,15.21
2022-09-05T23:54:09.467Z,15.17
2022-09-05T23:56:38.981Z,15.19
2022-09-05T23:59:08.562Z,15.36
